Terminal Aerodrome Forecast
Issued by NWS

Home | Current Version | Previous Version | Text Only | Print | Product List | Glossary On
Versions: 1 2 3 4 5 6 7 8 9 10 11 12 13 14 15
000
FTUS45 KFGZ 240142 AAB
TAFPGA
TAF AMD
KPGA 240142Z 2402/2424 VRB06KT P6SM BKN040 BKN100
      TEMPO 2402/2404 2SM SHRA OVC040
     FM240500 VRB05KT P6SM BKN050 BKN100
     FM241800 21010KT P6SM SCT050 BKN080 PROB30 2418/2424 -SHRA
      BKN040=

USA.gov is the U.S. government's official web portal to all federal, state and local government web resources and services.